Terminal Aerodrome Forecast
Issued by NWS Sterling, VA

Current Version | Previous Version | Graphics & Text | Print | Product List | Glossary On
Versions: 1 2 3 4 5 6 7 8 9 10 11 12 13 14 15 16 17 18 19 20 21
000
FTUS41 KLWX 221513 AAA
TAFDCA
TAF AMD
KDCA 221513Z 2215/2312 19015G21KT P6SM FEW250
     FM221700 24014G34KT P6SM -SHRA SCT040 BKN060
     FM222000 27015G29KT P6SM BKN060
     FM230000 28009KT P6SM SCT250=

USA.gov is the U.S. government's official web portal to all federal, state and local government web resources and services.